sensor_id;sensor_type;location;lat;lon;timestamp;temperature;humidity
3055;DHT22;1537;52.018;8.542;2022-10-16T00:01:08;14.10;76.80
3055;DHT22;1537;52.018;8.542;2022-10-16T00:04:40;14.20;76.90
3055;DHT22;1537;52.018;8.542;2022-10-16T00:08:04;14.20;76.90
3055;DHT22;1537;52.018;8.542;2022-10-16T00:11:33;14.10;76.90
3055;DHT22;1537;52.018;8.542;2022-10-16T00:14:59;14.10;77.10
3055;DHT22;1537;52.018;8.542;2022-10-16T00:18:24;14.10;77.30
3055;DHT22;1537;52.018;8.542;2022-10-16T00:21:49;14.10;76.90
3055;DHT22;1537;52.018;8.542;2022-10-16T00:25:31;14.10;77.00
3055;DHT22;1537;52.018;8.542;2022-10-16T00:28:56;14.00;77.00
3055;DHT22;1537;52.018;8.542;2022-10-16T00:32:20;14.00;77.00
3055;DHT22;1537;52.018;8.542;2022-10-16T00:35:46;14.00;77.00
3055;DHT22;1537;52.018;8.542;2022-10-16T00:39:11;14.00;77.30
3055;DHT22;1537;52.018;8.542;2022-10-16T00:42:37;14.00;78.00
3055;DHT22;1537;52.018;8.542;2022-10-16T00:46:02;14.00;77.20
3055;DHT22;1537;52.018;8.542;2022-10-16T00:49:28;13.90;77.00
3055;DHT22;1537;52.018;8.542;2022-10-16T00:52:55;13.90;77.10
3055;DHT22;1537;52.018;8.542;2022-10-16T00:56:19;13.80;77.30
3055;DHT22;1537;52.018;8.542;2022-10-16T00:59:44;13.80;77.20
3055;DHT22;1537;52.018;8.542;2022-10-16T01:03:23;13.80;77.10
3055;DHT22;1537;52.018;8.542;2022-10-16T01:06:55;13.60;77.60
3055;DHT22;1537;52.018;8.542;2022-10-16T01:10:29;13.60;77.60
3055;DHT22;1537;52.018;8.542;2022-10-16T01:13:58;13.60;77.80
3055;DHT22;1537;52.018;8.542;2022-10-16T01:17:28;13.50;77.60
3055;DHT22;1537;52.018;8.542;2022-10-16T01:21:00;13.50;77.90
3055;DHT22;1537;52.018;8.542;2022-10-16T01:24:32;13.50;78.00
3055;DHT22;1537;52.018;8.542;2022-10-16T01:28:01;13.50;77.90
3055;DHT22;1537;52.018;8.542;2022-10-16T01:31:30;13.50;78.20
3055;DHT22;1537;52.018;8.542;2022-10-16T01:34:59;13.50;78.20
3055;DHT22;1537;52.018;8.542;2022-10-16T01:38:29;13.50;78.30
3055;DHT22;1537;52.018;8.542;2022-10-16T01:42:01;13.50;78.30
3055;DHT22;1537;52.018;8.542;2022-10-16T01:45:28;13.50;78.40
3055;DHT22;1537;52.018;8.542;2022-10-16T01:48:53;13.50;78.40
3055;DHT22;1537;52.018;8.542;2022-10-16T01:52:23;13.50;78.50
3055;DHT22;1537;52.018;8.542;2022-10-16T01:55:50;13.50;78.60
3055;DHT22;1537;52.018;8.542;2022-10-16T01:59:20;13.50;78.60
3055;DHT22;1537;52.018;8.542;2022-10-16T02:02:48;13.50;79.20
3055;DHT22;1537;52.018;8.542;2022-10-16T02:06:14;13.50;78.60
3055;DHT22;1537;52.018;8.542;2022-10-16T02:09:38;13.50;78.70
3055;DHT22;1537;52.018;8.542;2022-10-16T02:13:06;13.50;78.50
3055;DHT22;1537;52.018;8.542;2022-10-16T02:16:37;13.40;78.60
3055;DHT22;1537;52.018;8.542;2022-10-16T02:20:03;13.40;78.70
3055;DHT22;1537;52.018;8.542;2022-10-16T02:23:35;13.40;79.60
3055;DHT22;1537;52.018;8.542;2022-10-16T02:27:05;13.40;78.70
3055;DHT22;1537;52.018;8.542;2022-10-16T02:30:34;13.40;78.70
3055;DHT22;1537;52.018;8.542;2022-10-16T02:34:00;13.40;78.80
3055;DHT22;1537;52.018;8.542;2022-10-16T02:37:26;13.40;78.80
3055;DHT22;1537;52.018;8.542;2022-10-16T02:40:52;13.50;78.90
3055;DHT22;1537;52.018;8.542;2022-10-16T02:44:17;13.50;78.70
3055;DHT22;1537;52.018;8.542;2022-10-16T02:47:41;13.50;78.60
3055;DHT22;1537;52.018;8.542;2022-10-16T02:51:08;13.60;78.30
3055;DHT22;1537;52.018;8.542;2022-10-16T02:54:33;13.60;78.20
3055;DHT22;1537;52.018;8.542;2022-10-16T02:57:57;13.50;78.10
3055;DHT22;1537;52.018;8.542;2022-10-16T03:01:23;13.60;78.10
3055;DHT22;1537;52.018;8.542;2022-10-16T03:04:47;13.60;77.90
3055;DHT22;1537;52.018;8.542;2022-10-16T03:08:11;13.70;77.80
3055;DHT22;1537;52.018;8.542;2022-10-16T03:11:36;13.70;77.60
3055;DHT22;1537;52.018;8.542;2022-10-16T03:15:00;13.70;77.50
3055;DHT22;1537;52.018;8.542;2022-10-16T03:18:25;13.70;78.00
3055;DHT22;1537;52.018;8.542;2022-10-16T03:21:49;13.70;77.20
3055;DHT22;1537;52.018;8.542;2022-10-16T03:25:13;13.70;77.10
3055;DHT22;1537;52.018;8.542;2022-10-16T03:28:38;13.60;77.10
3055;DHT22;1537;52.018;8.542;2022-10-16T03:32:02;13.70;77.20
3055;DHT22;1537;52.018;8.542;2022-10-16T03:35:26;13.70;77.00
3055;DHT22;1537;52.018;8.542;2022-10-16T03:38:52;13.70;77.00
3055;DHT22;1537;52.018;8.542;2022-10-16T03:42:19;13.60;76.80
3055;DHT22;1537;52.018;8.542;2022-10-16T03:45:44;13.60;76.80
3055;DHT22;1537;52.018;8.542;2022-10-16T03:49:08;13.60;76.70
3055;DHT22;1537;52.018;8.542;2022-10-16T03:52:32;13.60;76.80
3055;DHT22;1537;52.018;8.542;2022-10-16T03:55:56;13.60;76.80
3055;DHT22;1537;52.018;8.542;2022-10-16T03:59:22;13.60;76.80
3055;DHT22;1537;52.018;8.542;2022-10-16T04:02:48;13.60;77.60
3055;DHT22;1537;52.018;8.542;2022-10-16T04:06:15;13.60;76.90
3055;DHT22;1537;52.018;8.542;2022-10-16T04:09:39;13.60;76.80
3055;DHT22;1537;52.018;8.542;2022-10-16T04:13:03;13.60;76.80
3055;DHT22;1537;52.018;8.542;2022-10-16T04:16:27;13.60;76.70
3055;DHT22;1537;52.018;8.542;2022-10-16T04:19:52;13.70;76.60
3055;DHT22;1537;52.018;8.542;2022-10-16T04:23:16;13.70;76.40
3055;DHT22;1537;52.018;8.542;2022-10-16T04:26:40;13.70;76.20
3055;DHT22;1537;52.018;8.542;2022-10-16T04:30:05;13.70;76.10
3055;DHT22;1537;52.018;8.542;2022-10-16T04:33:29;13.80;76.10
3055;DHT22;1537;52.018;8.542;2022-10-16T04:36:54;13.80;76.00
3055;DHT22;1537;52.018;8.542;2022-10-16T04:40:22;13.80;75.80
3055;DHT22;1537;52.018;8.542;2022-10-16T04:43:46;13.90;75.60
3055;DHT22;1537;52.018;8.542;2022-10-16T04:47:10;13.80;75.60
3055;DHT22;1537;52.018;8.542;2022-10-16T04:50:37;13.80;75.40
3055;DHT22;1537;52.018;8.542;2022-10-16T04:54:02;13.90;75.70
3055;DHT22;1537;52.018;8.542;2022-10-16T04:57:29;13.90;75.50
3055;DHT22;1537;52.018;8.542;2022-10-16T05:00:54;13.90;75.50
3055;DHT22;1537;52.018;8.542;2022-10-16T05:04:18;14.00;75.50
3055;DHT22;1537;52.018;8.542;2022-10-16T05:07:46;14.00;75.10
3055;DHT22;1537;52.018;8.542;2022-10-16T05:11:12;14.00;75.00
3055;DHT22;1537;52.018;8.542;2022-10-16T05:14:36;13.90;75.10
3055;DHT22;1537;52.018;8.542;2022-10-16T05:18:00;14.00;75.00
3055;DHT22;1537;52.018;8.542;2022-10-16T05:21:26;13.90;75.00
3055;DHT22;1537;52.018;8.542;2022-10-16T05:24:50;14.00;75.00
3055;DHT22;1537;52.018;8.542;2022-10-16T05:28:17;13.90;74.70
3055;DHT22;1537;52.018;8.542;2022-10-16T05:31:42;13.90;74.80
3055;DHT22;1537;52.018;8.542;2022-10-16T05:35:07;13.80;74.70
3055;DHT22;1537;52.018;8.542;2022-10-16T05:38:34;13.80;74.80
3055;DHT22;1537;52.018;8.542;2022-10-16T05:41:59;13.80;75.60
3055;DHT22;1537;52.018;8.542;2022-10-16T05:45:24;13.70;74.80
3055;DHT22;1537;52.018;8.542;2022-10-16T05:48:52;13.70;74.70
3055;DHT22;1537;52.018;8.542;2022-10-16T05:52:16;13.70;74.80
3055;DHT22;1537;52.018;8.542;2022-10-16T05:55:40;13.70;74.70
3055;DHT22;1537;52.018;8.542;2022-10-16T05:59:06;13.70;74.60
3055;DHT22;1537;52.018;8.542;2022-10-16T06:02:31;13.70;74.40
3055;DHT22;1537;52.018;8.542;2022-10-16T06:05:56;13.70;74.40
3055;DHT22;1537;52.018;8.542;2022-10-16T06:09:20;13.70;74.40
3055;DHT22;1537;52.018;8.542;2022-10-16T06:12:46;13.70;74.20
3055;DHT22;1537;52.018;8.542;2022-10-16T06:16:10;13.80;74.10
3055;DHT22;1537;52.018;8.542;2022-10-16T06:19:36;13.80;74.10
3055;DHT22;1537;52.018;8.542;2022-10-16T06:23:01;13.80;73.90
3055;DHT22;1537;52.018;8.542;2022-10-16T06:26:31;13.90;73.70
3055;DHT22;1537;52.018;8.542;2022-10-16T06:29:55;13.90;73.60
3055;DHT22;1537;52.018;8.542;2022-10-16T06:33:20;14.00;73.30
3055;DHT22;1537;52.018;8.542;2022-10-16T06:36:45;14.20;73.20
3055;DHT22;1537;52.018;8.542;2022-10-16T06:40:10;14.20;72.50
3055;DHT22;1537;52.018;8.542;2022-10-16T06:43:39;14.30;71.90
3055;DHT22;1537;52.018;8.542;2022-10-16T06:47:03;14.40;71.70
3055;DHT22;1537;52.018;8.542;2022-10-16T06:50:27;14.40;71.60
3055;DHT22;1537;52.018;8.542;2022-10-16T06:53:55;14.40;71.50
3055;DHT22;1537;52.018;8.542;2022-10-16T06:57:26;14.40;71.50
3055;DHT22;1537;52.018;8.542;2022-10-16T07:00:55;14.40;71.40
3055;DHT22;1537;52.018;8.542;2022-10-16T07:04:19;14.40;71.80
3055;DHT22;1537;52.018;8.542;2022-10-16T07:07:43;14.50;71.80
3055;DHT22;1537;52.018;8.542;2022-10-16T07:11:10;14.60;71.60
3055;DHT22;1537;52.018;8.542;2022-10-16T07:14:34;15.10;69.80
3055;DHT22;1537;52.018;8.542;2022-10-16T07:17:58;15.40;67.90
3055;DHT22;1537;52.018;8.542;2022-10-16T07:21:22;15.60;67.80
3055;DHT22;1537;52.018;8.542;2022-10-16T07:24:48;16.40;66.50
3055;DHT22;1537;52.018;8.542;2022-10-16T07:28:16;18.10;60.20
3055;DHT22;1537;52.018;8.542;2022-10-16T07:31:40;18.80;57.20
3055;DHT22;1537;52.018;8.542;2022-10-16T07:35:06;19.10;56.00
3055;DHT22;1537;52.018;8.542;2022-10-16T07:38:33;18.90;56.50
3055;DHT22;1537;52.018;8.542;2022-10-16T07:41:57;18.90;56.70
3055;DHT22;1537;52.018;8.542;2022-10-16T07:45:22;19.50;56.00
3055;DHT22;1537;52.018;8.542;2022-10-16T07:48:46;20.40;53.70
3055;DHT22;1537;52.018;8.542;2022-10-16T07:52:10;19.80;54.30
3055;DHT22;1537;52.018;8.542;2022-10-16T07:55:34;19.90;54.10
3055;DHT22;1537;52.018;8.542;2022-10-16T07:58:58;19.20;55.20
3055;DHT22;1537;52.018;8.542;2022-10-16T08:02:23;18.50;56.90
3055;DHT22;1537;52.018;8.542;2022-10-16T08:05:47;18.30;57.30
3055;DHT22;1537;52.018;8.542;2022-10-16T08:09:10;18.00;58.90
3055;DHT22;1537;52.018;8.542;2022-10-16T08:12:34;19.90;55.50
3055;DHT22;1537;52.018;8.542;2022-10-16T08:15:58;21.70;51.20
3055;DHT22;1537;52.018;8.542;2022-10-16T08:19:23;23.00;48.60
3055;DHT22;1537;52.018;8.542;2022-10-16T08:22:46;24.50;46.00
3055;DHT22;1537;52.018;8.542;2022-10-16T08:26:11;24.90;45.50
3055;DHT22;1537;52.018;8.542;2022-10-16T08:29:35;25.50;43.90
3055;DHT22;1537;52.018;8.542;2022-10-16T08:32:59;26.70;42.40
3055;DHT22;1537;52.018;8.542;2022-10-16T08:36:24;27.30;40.60
3055;DHT22;1537;52.018;8.542;2022-10-16T08:39:48;27.10;40.70
3055;DHT22;1537;52.018;8.542;2022-10-16T08:43:28;27.30;40.60
3055;DHT22;1537;52.018;8.542;2022-10-16T08:47:02;28.40;38.70
3055;DHT22;1537;52.018;8.542;2022-10-16T08:50:30;28.30;38.80
3055;DHT22;1537;52.018;8.542;2022-10-16T08:53:57;27.30;40.20
3055;DHT22;1537;52.018;8.542;2022-10-16T08:57:24;27.90;39.30
3055;DHT22;1537;52.018;8.542;2022-10-16T09:00:52;28.00;38.70
3055;DHT22;1537;52.018;8.542;2022-10-16T09:08:23;28.00;38.30
3055;DHT22;1537;52.018;8.542;2022-10-16T09:11:57;26.90;39.90
3055;DHT22;1537;52.018;8.542;2022-10-16T09:15:29;26.50;40.20
3055;DHT22;1537;52.018;8.542;2022-10-16T09:18:58;26.40;40.60
3055;DHT22;1537;52.018;8.542;2022-10-16T09:22:27;26.40;41.70
3055;DHT22;1537;52.018;8.542;2022-10-16T09:25:52;26.80;40.20
3055;DHT22;1537;52.018;8.542;2022-10-16T09:29:19;25.90;41.50
3055;DHT22;1537;52.018;8.542;2022-10-16T09:32:45;25.40;42.10
3055;DHT22;1537;52.018;8.542;2022-10-16T09:36:10;24.60;43.40
3055;DHT22;1537;52.018;8.542;2022-10-16T09:39:44;25.00;43.20
3055;DHT22;1537;52.018;8.542;2022-10-16T09:43:21;25.70;41.10
3055;DHT22;1537;52.018;8.542;2022-10-16T09:46:47;24.50;43.50
3055;DHT22;1537;52.018;8.542;2022-10-16T09:50:21;24.30;43.00
3055;DHT22;1537;52.018;8.542;2022-10-16T09:53:46;23.30;44.20
3055;DHT22;1537;52.018;8.542;2022-10-16T09:57:13;22.50;45.70
3055;DHT22;1537;52.018;8.542;2022-10-16T10:00:40;21.80;46.90
3055;DHT22;1537;52.018;8.542;2022-10-16T10:04:07;23.10;45.50
3055;DHT22;1537;52.018;8.542;2022-10-16T10:07:32;24.40;43.20
3055;DHT22;1537;52.018;8.542;2022-10-16T10:10:56;24.80;42.20
3055;DHT22;1537;52.018;8.542;2022-10-16T10:14:26;23.80;43.70
3055;DHT22;1537;52.018;8.542;2022-10-16T10:17:52;23.90;43.80
3055;DHT22;1537;52.018;8.542;2022-10-16T10:21:17;24.30;42.40
3055;DHT22;1537;52.018;8.542;2022-10-16T10:24:41;23.70;42.70
3055;DHT22;1537;52.018;8.542;2022-10-16T10:28:39;22.90;44.20
3055;DHT22;1537;52.018;8.542;2022-10-16T10:32:19;23.20;43.50
3055;DHT22;1537;52.018;8.542;2022-10-16T10:35:52;23.10;43.40
3055;DHT22;1537;52.018;8.542;2022-10-16T10:39:24;24.00;43.00
3055;DHT22;1537;52.018;8.542;2022-10-16T10:42:53;23.70;42.00
3055;DHT22;1537;52.018;8.542;2022-10-16T10:46:25;22.80;43.50
3055;DHT22;1537;52.018;8.542;2022-10-16T10:50:00;21.90;45.00
3055;DHT22;1537;52.018;8.542;2022-10-16T10:53:36;22.00;44.90
3055;DHT22;1537;52.018;8.542;2022-10-16T10:57:10;21.60;45.70
3055;DHT22;1537;52.018;8.542;2022-10-16T11:00:45;21.10;46.40
3055;DHT22;1537;52.018;8.542;2022-10-16T11:04:29;20.50;47.40
3055;DHT22;1537;52.018;8.542;2022-10-16T11:07:59;20.30;48.10
3055;DHT22;1537;52.018;8.542;2022-10-16T11:11:28;19.90;49.20
3055;DHT22;1537;52.018;8.542;2022-10-16T11:15:00;19.80;49.30
3055;DHT22;1537;52.018;8.542;2022-10-16T11:18:29;19.70;50.20
3055;DHT22;1537;52.018;8.542;2022-10-16T11:21:59;19.70;49.80
3055;DHT22;1537;52.018;8.542;2022-10-16T11:25:28;19.70;50.10
3055;DHT22;1537;52.018;8.542;2022-10-16T11:28:54;19.70;49.90
3055;DHT22;1537;52.018;8.542;2022-10-16T11:32:25;19.90;50.30
3055;DHT22;1537;52.018;8.542;2022-10-16T11:35:53;20.00;49.20
3055;DHT22;1537;52.018;8.542;2022-10-16T11:39:21;20.00;50.10
3055;DHT22;1537;52.018;8.542;2022-10-16T11:42:50;20.00;49.10
3055;DHT22;1537;52.018;8.542;2022-10-16T11:46:21;19.90;49.00
3055;DHT22;1537;52.018;8.542;2022-10-16T11:49:51;19.60;49.10
3055;DHT22;1537;52.018;8.542;2022-10-16T11:53:23;19.50;49.10
3055;DHT22;1537;52.018;8.542;2022-10-16T11:56:55;19.30;49.20
3055;DHT22;1537;52.018;8.542;2022-10-16T12:00:23;19.30;49.30
3055;DHT22;1537;52.018;8.542;2022-10-16T12:04:05;19.40;49.30
3055;DHT22;1537;52.018;8.542;2022-10-16T12:07:41;19.20;49.60
3055;DHT22;1537;52.018;8.542;2022-10-16T12:11:24;19.10;50.20
3055;DHT22;1537;52.018;8.542;2022-10-16T12:15:01;19.10;49.80
3055;DHT22;1537;52.018;8.542;2022-10-16T12:18:47;19.10;49.90
3055;DHT22;1537;52.018;8.542;2022-10-16T12:22:21;19.10;50.10
3055;DHT22;1537;52.018;8.542;2022-10-16T12:25:56;19.10;50.00
3055;DHT22;1537;52.018;8.542;2022-10-16T12:29:30;19.20;49.90
3055;DHT22;1537;52.018;8.542;2022-10-16T12:33:00;19.30;49.70
3055;DHT22;1537;52.018;8.542;2022-10-16T12:36:30;19.30;49.30
3055;DHT22;1537;52.018;8.542;2022-10-16T12:39:56;19.40;49.40
3055;DHT22;1537;52.018;8.542;2022-10-16T12:43:34;19.30;49.70
3055;DHT22;1537;52.018;8.542;2022-10-16T12:47:04;19.30;49.70
3055;DHT22;1537;52.018;8.542;2022-10-16T12:50:33;19.30;49.70
3055;DHT22;1537;52.018;8.542;2022-10-16T12:54:01;19.30;50.00
3055;DHT22;1537;52.018;8.542;2022-10-16T12:57:44;19.60;49.60
3055;DHT22;1537;52.018;8.542;2022-10-16T13:01:20;19.80;49.30
3055;DHT22;1537;52.018;8.542;2022-10-16T13:05:01;20.00;49.20
3055;DHT22;1537;52.018;8.542;2022-10-16T13:08:40;20.10;48.80
3055;DHT22;1537;52.018;8.542;2022-10-16T13:16:05;20.00;49.20
3055;DHT22;1537;52.018;8.542;2022-10-16T13:19:41;19.90;49.30
3055;DHT22;1537;52.018;8.542;2022-10-16T13:23:16;19.80;49.60
3055;DHT22;1537;52.018;8.542;2022-10-16T13:26:54;19.70;49.70
3055;DHT22;1537;52.018;8.542;2022-10-16T13:30:25;19.70;50.00
3055;DHT22;1537;52.018;8.542;2022-10-16T13:33:59;19.70;49.70
3055;DHT22;1537;52.018;8.542;2022-10-16T13:37:28;19.70;49.70
3055;DHT22;1537;52.018;8.542;2022-10-16T13:40:54;19.50;49.10
3055;DHT22;1537;52.018;8.542;2022-10-16T13:44:20;19.40;49.90
3055;DHT22;1537;52.018;8.542;2022-10-16T13:47:43;19.40;49.30
3055;DHT22;1537;52.018;8.542;2022-10-16T13:51:13;19.30;49.70
3055;DHT22;1537;52.018;8.542;2022-10-16T13:54:39;19.20;50.10
3055;DHT22;1537;52.018;8.542;2022-10-16T13:58:10;19.20;49.90
3055;DHT22;1537;52.018;8.542;2022-10-16T14:01:41;19.20;49.90
3055;DHT22;1537;52.018;8.542;2022-10-16T14:05:09;19.20;50.40
3055;DHT22;1537;52.018;8.542;2022-10-16T14:08:33;19.10;50.50
3055;DHT22;1537;52.018;8.542;2022-10-16T14:12:02;18.90;50.40
3055;DHT22;1537;52.018;8.542;2022-10-16T14:15:27;18.90;50.90
3055;DHT22;1537;52.018;8.542;2022-10-16T14:18:57;19.00;51.00
3055;DHT22;1537;52.018;8.542;2022-10-16T14:22:28;18.90;50.90
3055;DHT22;1537;52.018;8.542;2022-10-16T14:25:53;19.10;50.80
3055;DHT22;1537;52.018;8.542;2022-10-16T14:29:19;19.10;50.50
3055;DHT22;1537;52.018;8.542;2022-10-16T14:32:53;19.20;50.70
3055;DHT22;1537;52.018;8.542;2022-10-16T14:36:18;19.20;50.50
3055;DHT22;1537;52.018;8.542;2022-10-16T14:39:48;19.20;50.40
3055;DHT22;1537;52.018;8.542;2022-10-16T14:43:20;19.30;50.50
3055;DHT22;1537;52.018;8.542;2022-10-16T14:46:46;19.30;50.50
3055;DHT22;1537;52.018;8.542;2022-10-16T14:50:10;19.30;50.60
3055;DHT22;1537;52.018;8.542;2022-10-16T14:53:33;19.10;50.90
3055;DHT22;1537;52.018;8.542;2022-10-16T14:56:58;19.00;51.10
3055;DHT22;1537;52.018;8.542;2022-10-16T15:00:23;18.80;50.90
3055;DHT22;1537;52.018;8.542;2022-10-16T15:03:48;18.70;51.30
3055;DHT22;1537;52.018;8.542;2022-10-16T15:07:14;18.70;51.80
3055;DHT22;1537;52.018;8.542;2022-10-16T15:10:40;18.60;51.70
3055;DHT22;1537;52.018;8.542;2022-10-16T15:14:04;18.70;51.90
3055;DHT22;1537;52.018;8.542;2022-10-16T15:17:28;18.80;51.90
3055;DHT22;1537;52.018;8.542;2022-10-16T15:20:53;18.90;51.70
3055;DHT22;1537;52.018;8.542;2022-10-16T15:24:17;18.90;51.60
3055;DHT22;1537;52.018;8.542;2022-10-16T15:27:43;19.00;51.70
3055;DHT22;1537;52.018;8.542;2022-10-16T15:31:06;19.10;51.80
3055;DHT22;1537;52.018;8.542;2022-10-16T15:34:30;19.00;52.00
3055;DHT22;1537;52.018;8.542;2022-10-16T15:37:55;18.90;52.10
3055;DHT22;1537;52.018;8.542;2022-10-16T15:41:19;18.90;52.30
3055;DHT22;1537;52.018;8.542;2022-10-16T15:44:43;18.90;52.40
3055;DHT22;1537;52.018;8.542;2022-10-16T15:48:10;18.90;52.60
3055;DHT22;1537;52.018;8.542;2022-10-16T15:51:38;18.70;52.90
3055;DHT22;1537;52.018;8.542;2022-10-16T15:55:04;18.60;53.10
3055;DHT22;1537;52.018;8.542;2022-10-16T15:58:27;18.50;53.20
3055;DHT22;1537;52.018;8.542;2022-10-16T16:01:52;18.40;53.70
3055;DHT22;1537;52.018;8.542;2022-10-16T16:05:16;18.30;54.00
3055;DHT22;1537;52.018;8.542;2022-10-16T16:08:39;18.20;54.30
3055;DHT22;1537;52.018;8.542;2022-10-16T16:12:04;18.00;55.50
3055;DHT22;1537;52.018;8.542;2022-10-16T16:15:28;17.90;56.10
3055;DHT22;1537;52.018;8.542;2022-10-16T16:18:52;17.90;56.60
3055;DHT22;1537;52.018;8.542;2022-10-16T16:22:16;17.90;56.90
3055;DHT22;1537;52.018;8.542;2022-10-16T16:25:40;17.80;57.00
3055;DHT22;1537;52.018;8.542;2022-10-16T16:29:05;17.80;57.20
3055;DHT22;1537;52.018;8.542;2022-10-16T16:32:29;17.80;57.40
3055;DHT22;1537;52.018;8.542;2022-10-16T16:35:56;17.70;57.90
3055;DHT22;1537;52.018;8.542;2022-10-16T16:39:21;17.60;58.30
3055;DHT22;1537;52.018;8.542;2022-10-16T16:42:47;17.60;58.50
3055;DHT22;1537;52.018;8.542;2022-10-16T16:46:12;17.60;59.10
3055;DHT22;1537;52.018;8.542;2022-10-16T16:49:36;17.60;59.20
3055;DHT22;1537;52.018;8.542;2022-10-16T16:53:00;17.40;59.50
3055;DHT22;1537;52.018;8.542;2022-10-16T16:56:25;17.30;60.10
3055;DHT22;1537;52.018;8.542;2022-10-16T16:59:50;17.20;60.00
3055;DHT22;1537;52.018;8.542;2022-10-16T17:03:15;17.20;60.20
3055;DHT22;1537;52.018;8.542;2022-10-16T17:06:39;17.20;61.00
3055;DHT22;1537;52.018;8.542;2022-10-16T17:10:04;17.10;61.30
3055;DHT22;1537;52.018;8.542;2022-10-16T17:13:29;17.20;61.50
3055;DHT22;1537;52.018;8.542;2022-10-16T17:16:53;17.10;61.70
3055;DHT22;1537;52.018;8.542;2022-10-16T17:20:18;17.20;61.60
3055;DHT22;1537;52.018;8.542;2022-10-16T17:23:41;17.20;61.50
3055;DHT22;1537;52.018;8.542;2022-10-16T17:27:05;17.10;61.80
3055;DHT22;1537;52.018;8.542;2022-10-16T17:30:29;17.10;61.90
3055;DHT22;1537;52.018;8.542;2022-10-16T17:33:53;17.10;61.70
3055;DHT22;1537;52.018;8.542;2022-10-16T17:37:18;17.00;61.70
3055;DHT22;1537;52.018;8.542;2022-10-16T17:40:42;17.00;62.70
3055;DHT22;1537;52.018;8.542;2022-10-16T17:44:07;17.00;62.00
3055;DHT22;1537;52.018;8.542;2022-10-16T17:47:30;16.90;62.00
3055;DHT22;1537;52.018;8.542;2022-10-16T17:50:54;16.90;61.80
3055;DHT22;1537;52.018;8.542;2022-10-16T17:54:19;16.80;62.40
3055;DHT22;1537;52.018;8.542;2022-10-16T17:57:43;16.60;63.00
3055;DHT22;1537;52.018;8.542;2022-10-16T18:01:14;16.40;63.60
3055;DHT22;1537;52.018;8.542;2022-10-16T18:04:38;16.20;64.30
3055;DHT22;1537;52.018;8.542;2022-10-16T18:08:01;16.30;64.30
3055;DHT22;1537;52.018;8.542;2022-10-16T18:11:27;16.30;64.50
3055;DHT22;1537;52.018;8.542;2022-10-16T18:14:51;16.30;64.50
3055;DHT22;1537;52.018;8.542;2022-10-16T18:18:19;16.30;64.50
3055;DHT22;1537;52.018;8.542;2022-10-16T18:21:48;16.40;64.50
3055;DHT22;1537;52.018;8.542;2022-10-16T18:25:12;16.40;64.70
3055;DHT22;1537;52.018;8.542;2022-10-16T18:28:37;16.40;64.60
3055;DHT22;1537;52.018;8.542;2022-10-16T18:32:01;16.30;64.90
3055;DHT22;1537;52.018;8.542;2022-10-16T18:35:25;16.30;65.10
3055;DHT22;1537;52.018;8.542;2022-10-16T18:38:48;16.20;65.40
3055;DHT22;1537;52.018;8.542;2022-10-16T18:42:12;16.10;65.60
3055;DHT22;1537;52.018;8.542;2022-10-16T18:45:37;16.10;66.00
3055;DHT22;1537;52.018;8.542;2022-10-16T18:49:01;16.00;66.00
3055;DHT22;1537;52.018;8.542;2022-10-16T18:52:26;16.00;66.00
3055;DHT22;1537;52.018;8.542;2022-10-16T18:55:52;15.80;66.30
3055;DHT22;1537;52.018;8.542;2022-10-16T18:59:17;15.80;66.40
3055;DHT22;1537;52.018;8.542;2022-10-16T19:02:42;15.80;66.90
3055;DHT22;1537;52.018;8.542;2022-10-16T19:06:08;15.70;67.60
3055;DHT22;1537;52.018;8.542;2022-10-16T19:09:31;15.80;67.60
3055;DHT22;1537;52.018;8.542;2022-10-16T19:12:55;15.80;68.00
3055;DHT22;1537;52.018;8.542;2022-10-16T19:16:33;15.80;68.20
3055;DHT22;1537;52.018;8.542;2022-10-16T19:20:10;15.90;67.70
3055;DHT22;1537;52.018;8.542;2022-10-16T19:23:38;15.90;67.50
3055;DHT22;1537;52.018;8.542;2022-10-16T19:27:10;15.90;67.50
3055;DHT22;1537;52.018;8.542;2022-10-16T19:30:38;15.80;68.00
3055;DHT22;1537;52.018;8.542;2022-10-16T19:34:03;15.80;67.70
3055;DHT22;1537;52.018;8.542;2022-10-16T19:37:31;15.90;67.80
3055;DHT22;1537;52.018;8.542;2022-10-16T19:41:05;15.70;67.10
3055;DHT22;1537;52.018;8.542;2022-10-16T19:44:29;15.60;67.40
3055;DHT22;1537;52.018;8.542;2022-10-16T19:47:55;15.70;67.30
3055;DHT22;1537;52.018;8.542;2022-10-16T19:51:25;15.60;67.20
3055;DHT22;1537;52.018;8.542;2022-10-16T19:54:59;15.60;67.20
3055;DHT22;1537;52.018;8.542;2022-10-16T19:58:25;15.60;67.30
3055;DHT22;1537;52.018;8.542;2022-10-16T20:01:51;15.70;67.30
3055;DHT22;1537;52.018;8.542;2022-10-16T20:05:19;15.60;67.10
3055;DHT22;1537;52.018;8.542;2022-10-16T20:08:55;15.60;66.80
3055;DHT22;1537;52.018;8.542;2022-10-16T20:12:23;15.50;67.00
3055;DHT22;1537;52.018;8.542;2022-10-16T20:15:47;15.50;66.80
3055;DHT22;1537;52.018;8.542;2022-10-16T20:19:16;15.50;67.40
3055;DHT22;1537;52.018;8.542;2022-10-16T20:22:43;15.40;67.20
3055;DHT22;1537;52.018;8.542;2022-10-16T20:26:14;15.40;67.50
3055;DHT22;1537;52.018;8.542;2022-10-16T20:29:52;15.50;67.70
3055;DHT22;1537;52.018;8.542;2022-10-16T20:33:21;15.60;67.80
3055;DHT22;1537;52.018;8.542;2022-10-16T20:36:48;15.60;67.30
3055;DHT22;1537;52.018;8.542;2022-10-16T20:40:13;15.60;67.50
3055;DHT22;1537;52.018;8.542;2022-10-16T20:43:43;15.60;67.80
3055;DHT22;1537;52.018;8.542;2022-10-16T20:47:14;15.60;67.90
3055;DHT22;1537;52.018;8.542;2022-10-16T20:50:41;15.70;68.20
3055;DHT22;1537;52.018;8.542;2022-10-16T20:54:05;15.70;68.60
3055;DHT22;1537;52.018;8.542;2022-10-16T20:57:28;15.80;69.60
3055;DHT22;1537;52.018;8.542;2022-10-16T21:00:52;15.80;71.00
3055;DHT22;1537;52.018;8.542;2022-10-16T21:04:17;15.80;71.70
3055;DHT22;1537;52.018;8.542;2022-10-16T21:07:45;15.80;72.40
3055;DHT22;1537;52.018;8.542;2022-10-16T21:11:14;15.80;73.20
3055;DHT22;1537;52.018;8.542;2022-10-16T21:14:38;15.80;73.90
3055;DHT22;1537;52.018;8.542;2022-10-16T21:18:22;15.80;74.60
3055;DHT22;1537;52.018;8.542;2022-10-16T21:21:50;15.90;74.70
3055;DHT22;1537;52.018;8.542;2022-10-16T21:25:16;15.90;75.30
3055;DHT22;1537;52.018;8.542;2022-10-16T21:28:40;15.80;75.90
3055;DHT22;1537;52.018;8.542;2022-10-16T21:32:04;15.70;76.30
3055;DHT22;1537;52.018;8.542;2022-10-16T21:35:29;15.60;76.50
3055;DHT22;1537;52.018;8.542;2022-10-16T21:38:55;15.40;74.80
3055;DHT22;1537;52.018;8.542;2022-10-16T21:42:19;15.30;75.20
3055;DHT22;1537;52.018;8.542;2022-10-16T21:45:43;15.20;75.20
3055;DHT22;1537;52.018;8.542;2022-10-16T21:49:12;15.10;75.20
3055;DHT22;1537;52.018;8.542;2022-10-16T21:52:37;15.20;75.70
3055;DHT22;1537;52.018;8.542;2022-10-16T21:56:03;15.30;75.90
3055;DHT22;1537;52.018;8.542;2022-10-16T21:59:27;15.40;75.80
3055;DHT22;1537;52.018;8.542;2022-10-16T22:02:51;15.40;75.70
3055;DHT22;1537;52.018;8.542;2022-10-16T22:06:17;15.40;75.80
3055;DHT22;1537;52.018;8.542;2022-10-16T22:09:42;15.40;75.90
3055;DHT22;1537;52.018;8.542;2022-10-16T22:13:08;15.50;75.80
3055;DHT22;1537;52.018;8.542;2022-10-16T22:16:33;15.50;75.90
3055;DHT22;1537;52.018;8.542;2022-10-16T22:19:57;15.60;75.80
3055;DHT22;1537;52.018;8.542;2022-10-16T22:23:22;15.60;75.80
3055;DHT22;1537;52.018;8.542;2022-10-16T22:26:46;15.40;75.60
3055;DHT22;1537;52.018;8.542;2022-10-16T22:30:14;15.30;75.80
3055;DHT22;1537;52.018;8.542;2022-10-16T22:33:37;15.20;75.90
3055;DHT22;1537;52.018;8.542;2022-10-16T22:37:01;15.00;76.60
3055;DHT22;1537;52.018;8.542;2022-10-16T22:40:25;14.90;76.70